createdAt,value
2022-11-22T00:00:23.448Z,0.78
2022-11-22T00:02:50.372Z,0.68
2022-11-22T00:05:17.247Z,0.80
2022-11-22T00:07:44.165Z,0.68
2022-11-22T00:10:12.766Z,0.95
2022-11-22T00:12:40.577Z,0.84
2022-11-22T00:15:08.488Z,0.90
2022-11-22T00:17:35.496Z,0.79
2022-11-22T00:20:02.346Z,0.72
2022-11-22T00:22:31.506Z,0.68
2022-11-22T00:24:58.319Z,0.73
2022-11-22T00:27:25.655Z,0.82
2022-11-22T00:29:52.537Z,0.89
2022-11-22T00:32:19.491Z,0.67
2022-11-22T00:34:46.327Z,0.87
2022-11-22T00:37:13.277Z,0.94
2022-11-22T00:39:40.129Z,1.05
2022-11-22T00:42:07.068Z,0.88
2022-11-22T00:44:33.946Z,0.85
2022-11-22T00:47:00.917Z,0.87
2022-11-22T00:49:28.132Z,0.88
2022-11-22T00:51:55.304Z,0.75
2022-11-22T00:54:22.136Z,0.85
2022-11-22T00:56:49.084Z,0.91
2022-11-22T00:59:16.162Z,0.64
2022-11-22T01:01:43.138Z,0.86
2022-11-22T01:04:10.080Z,0.82
2022-11-22T01:06:36.994Z,0.74
2022-11-22T01:09:04.206Z,0.83
2022-11-22T01:11:31.230Z,0.95
2022-11-22T01:13:58.057Z,0.84
2022-11-22T01:16:24.944Z,0.90
2022-11-22T01:18:51.801Z,0.82
2022-11-22T01:21:18.774Z,0.87
2022-11-22T01:23:45.630Z,0.71
2022-11-22T01:26:12.922Z,0.86
2022-11-22T01:28:39.915Z,0.57
2022-11-22T01:31:07.058Z,0.80
2022-11-22T01:33:33.902Z,1.00
2022-11-22T01:36:00.895Z,0.71
2022-11-22T01:38:27.705Z,0.60
2022-11-22T01:40:54.794Z,0.62
2022-11-22T01:43:24.477Z,0.82
2022-11-22T01:46:31.779Z,0.97
2022-11-22T01:49:07.304Z,1.06
2022-11-22T01:51:41.303Z,0.92
2022-11-22T01:54:13.152Z,0.81
2022-11-22T01:56:44.320Z,0.74
2022-11-22T01:59:16.627Z,0.85
2022-11-22T02:01:44.070Z,0.69
2022-11-22T02:04:16.148Z,0.80
2022-11-22T02:07:12.120Z,0.90
2022-11-22T02:09:40.845Z,0.97
2022-11-22T02:12:10.033Z,0.73
2022-11-22T02:14:39.121Z,0.63
2022-11-22T02:17:06.250Z,0.50
2022-11-22T02:19:40.671Z,0.64
2022-11-22T02:22:33.738Z,0.68
2022-11-22T02:25:15.293Z,0.70
2022-11-22T02:27:43.038Z,0.89
2022-11-22T02:30:10.602Z,0.88
2022-11-22T02:32:37.602Z,0.90
2022-11-22T02:35:15.691Z,0.89
2022-11-22T02:37:42.919Z,0.80
2022-11-22T02:40:14.575Z,0.85
2022-11-22T02:42:50.726Z,1.00
2022-11-22T02:45:17.804Z,0.96
2022-11-22T02:47:44.686Z,0.86
2022-11-22T02:50:11.571Z,0.89
2022-11-22T02:52:38.421Z,0.77
2022-11-22T02:55:05.479Z,0.54
2022-11-22T02:57:32.414Z,0.60
2022-11-22T02:59:59.295Z,0.64
2022-11-22T03:02:26.147Z,0.79
2022-11-22T03:04:53.174Z,0.88
2022-11-22T03:07:20.027Z,0.90
2022-11-22T03:09:47.036Z,0.75
2022-11-22T03:12:13.865Z,0.85
2022-11-22T03:14:40.767Z,0.93
2022-11-22T03:17:07.657Z,0.83
2022-11-22T03:19:34.579Z,1.09
2022-11-22T03:22:01.369Z,1.10
2022-11-22T03:24:28.320Z,0.79
2022-11-22T03:26:55.152Z,0.97
2022-11-22T03:29:22.032Z,0.80
2022-11-22T03:31:48.965Z,0.67
2022-11-22T03:34:16.169Z,0.85
2022-11-22T03:36:43.736Z,0.77
2022-11-22T03:39:10.767Z,0.77
2022-11-22T03:41:37.785Z,0.83
2022-11-22T03:44:04.892Z,0.81
2022-11-22T03:46:31.830Z,0.71
2022-11-22T03:48:58.727Z,0.77
2022-11-22T03:51:26.859Z,0.90
2022-11-22T03:53:53.814Z,0.82
2022-11-22T03:56:20.774Z,0.97
2022-11-22T03:58:47.640Z,0.89
2022-11-22T04:01:16.746Z,0.72
2022-11-22T04:03:44.036Z,0.78
2022-11-22T04:06:10.835Z,0.76
2022-11-22T04:08:37.894Z,0.89
2022-11-22T04:11:05.155Z,0.97
2022-11-22T04:13:32.152Z,1.02
2022-11-22T04:15:58.959Z,0.87
2022-11-22T04:18:25.839Z,1.06
2022-11-22T04:20:52.690Z,0.96
2022-11-22T04:23:21.693Z,0.97
2022-11-22T04:25:53.863Z,0.90
2022-11-22T04:28:35.362Z,0.85
2022-11-22T04:31:10.464Z,0.72
2022-11-22T04:33:37.269Z,0.76
2022-11-22T04:36:07.689Z,0.95
2022-11-22T04:38:37.198Z,0.95
2022-11-22T04:41:04.545Z,1.10
2022-11-22T04:43:31.527Z,0.91
2022-11-22T04:45:58.411Z,0.95
2022-11-22T04:48:25.361Z,0.77
2022-11-22T04:50:52.201Z,0.98
2022-11-22T04:53:19.526Z,0.99
2022-11-22T04:55:47.410Z,0.93
2022-11-22T04:58:15.025Z,1.05
2022-11-22T05:00:41.976Z,1.04
2022-11-22T05:03:09.300Z,1.20
2022-11-22T05:05:38.499Z,1.11
2022-11-22T05:08:07.044Z,1.07
2022-11-22T05:10:34.838Z,0.99
2022-11-22T05:13:01.822Z,1.07
2022-11-22T05:15:28.686Z,1.18
2022-11-22T05:17:55.929Z,1.13
2022-11-22T05:20:22.718Z,1.13
2022-11-22T05:22:49.737Z,0.90
2022-11-22T05:25:19.204Z,1.21
2022-11-22T05:27:48.278Z,1.06
2022-11-22T05:30:15.193Z,0.98
2022-11-22T05:32:42.181Z,1.21
2022-11-22T05:35:09.338Z,1.11
2022-11-22T05:37:36.320Z,1.20
2022-11-22T05:40:03.297Z,1.28
2022-11-22T05:42:30.234Z,1.11
2022-11-22T05:44:57.337Z,1.19
2022-11-22T05:47:24.180Z,1.19
2022-11-22T05:49:50.965Z,1.32
2022-11-22T05:52:17.937Z,1.29
2022-11-22T05:54:44.788Z,1.37
2022-11-22T05:57:11.625Z,1.53
2022-11-22T05:59:43.787Z,1.54
2022-11-22T06:02:11.216Z,1.71
2022-11-22T06:04:38.103Z,1.32
2022-11-22T06:07:09.785Z,1.56
2022-11-22T06:09:37.250Z,1.32
2022-11-22T06:12:04.341Z,1.31
2022-11-22T06:14:31.261Z,1.46
2022-11-22T06:16:58.243Z,1.44
2022-11-22T06:19:25.231Z,1.53
2022-11-22T06:21:52.195Z,1.49
2022-11-22T06:24:19.108Z,1.40
2022-11-22T06:26:46.088Z,1.50
2022-11-22T06:29:13.064Z,1.37
2022-11-22T06:31:39.910Z,1.57
2022-11-22T06:34:06.984Z,1.47
2022-11-22T06:36:35.298Z,1.59
2022-11-22T06:39:02.194Z,1.66
2022-11-22T06:41:33.137Z,1.41
2022-11-22T06:44:00.022Z,1.35
2022-11-22T06:46:27.468Z,1.59
2022-11-22T06:48:54.570Z,1.57
2022-11-22T06:51:27.177Z,1.53
2022-11-22T06:53:54.940Z,1.66
2022-11-22T06:56:22.852Z,1.76
2022-11-22T06:58:51.443Z,1.54
2022-11-22T07:01:22.406Z,1.66
2022-11-22T07:03:50.405Z,1.71
2022-11-22T07:06:18.941Z,1.99
2022-11-22T07:08:46.776Z,1.79
2022-11-22T07:11:16.346Z,1.48
2022-11-22T07:13:43.808Z,1.79
2022-11-22T07:16:12.537Z,1.89
2022-11-22T07:18:39.936Z,1.99
2022-11-22T07:21:13.294Z,1.91
2022-11-22T07:23:46.084Z,1.93
2022-11-22T07:26:14.769Z,1.94
2022-11-22T07:28:42.678Z,1.88
2022-11-22T07:31:11.489Z,1.95
2022-11-22T07:33:38.864Z,1.97
2022-11-22T07:36:07.162Z,1.98
2022-11-22T07:38:34.707Z,2.27
2022-11-22T07:41:02.062Z,2.34
2022-11-22T07:43:29.507Z,2.58
2022-11-22T07:46:04.506Z,2.34
2022-11-22T07:48:31.459Z,2.46
2022-11-22T07:51:04.020Z,2.56
2022-11-22T07:53:31.132Z,2.18
2022-11-22T07:56:03.871Z,2.34
2022-11-22T07:58:31.387Z,2.35
2022-11-22T08:00:58.349Z,2.19
2022-11-22T08:03:28.843Z,2.16
2022-11-22T08:06:00.796Z,2.08
2022-11-22T08:08:28.459Z,2.18
2022-11-22T08:10:55.997Z,2.10
2022-11-22T08:13:23.321Z,2.07
2022-11-22T08:15:51.526Z,2.12
2022-11-22T08:18:21.899Z,2.03
2022-11-22T08:20:48.807Z,1.93
2022-11-22T08:23:15.762Z,2.06
2022-11-22T08:25:42.814Z,2.11
2022-11-22T08:28:09.712Z,1.93
2022-11-22T08:30:36.558Z,1.95
2022-11-22T08:33:03.447Z,2.14
2022-11-22T08:35:30.248Z,2.15
2022-11-22T08:37:57.705Z,1.99
2022-11-22T08:40:24.679Z,1.99
2022-11-22T08:42:54.451Z,2.29
2022-11-22T08:45:21.331Z,2.23
2022-11-22T08:47:48.190Z,2.38
2022-11-22T08:50:15.373Z,2.45
2022-11-22T08:52:42.205Z,2.11
2022-11-22T08:55:09.336Z,1.89
2022-11-22T08:57:36.254Z,1.96
2022-11-22T09:00:05.129Z,1.98
2022-11-22T09:02:32.117Z,1.98
2022-11-22T09:04:58.961Z,2.06
2022-11-22T09:10:12.929Z,1.99
2022-11-22T09:12:44.136Z,2.00
2022-11-22T09:15:11.691Z,2.01
2022-11-22T09:17:38.884Z,1.82
2022-11-22T09:20:06.864Z,1.89
2022-11-22T09:22:33.807Z,1.73
2022-11-22T09:25:00.864Z,1.99
2022-11-22T09:27:27.964Z,1.79
2022-11-22T09:29:54.989Z,1.77
2022-11-22T09:32:21.796Z,1.65
2022-11-22T09:34:48.772Z,1.83
2022-11-22T09:37:15.690Z,1.82
2022-11-22T09:39:47.958Z,1.92
2022-11-22T09:42:29.683Z,2.02
2022-11-22T09:45:14.604Z,2.21
2022-11-22T09:48:05.369Z,2.25
2022-11-22T09:50:51.716Z,2.26
2022-11-22T09:53:40.669Z,2.74
2022-11-22T09:56:16.688Z,2.78
2022-11-22T09:58:52.379Z,2.77
2022-11-22T10:01:37.282Z,2.66
2022-11-22T10:04:14.288Z,2.45
2022-11-22T10:06:46.318Z,2.47
2022-11-22T10:09:28.727Z,2.45
2022-11-22T10:12:04.668Z,2.35
2022-11-22T10:14:59.275Z,2.52
2022-11-22T10:17:45.578Z,2.47
2022-11-22T10:20:17.128Z,2.24
2022-11-22T10:22:44.433Z,2.19
2022-11-22T10:25:19.938Z,2.09
2022-11-22T10:28:11.914Z,2.26
2022-11-22T10:30:43.994Z,2.15
2022-11-22T10:33:23.194Z,2.19
2022-11-22T10:35:58.705Z,2.29
2022-11-22T10:39:04.301Z,2.30
2022-11-22T10:41:44.723Z,2.37
2022-11-22T10:44:20.275Z,2.44
2022-11-22T10:47:14.606Z,2.39
2022-11-22T10:50:11.920Z,2.64
2022-11-22T10:52:41.824Z,2.46
2022-11-22T10:55:23.571Z,2.50
2022-11-22T10:58:06.781Z,2.59
2022-11-22T11:00:39.494Z,2.57
2022-11-22T11:03:27.741Z,2.74
2022-11-22T11:06:22.794Z,2.80
2022-11-22T11:10:08.932Z,2.79
2022-11-22T11:12:36.101Z,2.98
2022-11-22T11:15:13.093Z,2.72
2022-11-22T11:17:43.167Z,2.54
2022-11-22T11:20:35.352Z,2.75
2022-11-22T11:23:17.649Z,2.71
2022-11-22T11:25:46.965Z,2.48
2022-11-22T11:28:18.832Z,2.72
2022-11-22T11:30:58.780Z,2.64
2022-11-22T11:33:31.204Z,2.74
2022-11-22T11:36:14.391Z,2.62
2022-11-22T11:38:41.251Z,2.45
2022-11-22T11:41:30.247Z,2.57
2022-11-22T11:44:00.486Z,2.59
2022-11-22T11:46:29.980Z,2.52
2022-11-22T11:49:10.755Z,2.68
2022-11-22T11:51:40.351Z,2.47
2022-11-22T11:54:15.918Z,2.49
2022-11-22T11:56:50.994Z,2.59
2022-11-22T11:59:42.450Z,2.43
2022-11-22T12:02:25.064Z,2.52
2022-11-22T12:04:54.922Z,2.43
2022-11-22T12:07:25.814Z,2.66
2022-11-22T12:09:55.207Z,2.76
2022-11-22T12:12:31.883Z,2.50
2022-11-22T12:15:11.847Z,2.50
2022-11-22T12:17:52.847Z,2.43
2022-11-22T12:20:29.403Z,2.40
2022-11-22T12:23:17.395Z,2.49
2022-11-22T12:25:45.871Z,2.70
2022-11-22T12:28:25.158Z,2.67
2022-11-22T12:30:55.876Z,2.66
2022-11-22T12:33:34.412Z,2.72
2022-11-22T12:36:04.846Z,2.70
2022-11-22T12:38:42.028Z,2.55
2022-11-22T12:41:13.986Z,2.51
2022-11-22T12:43:54.010Z,2.54
2022-11-22T12:46:30.370Z,2.58
2022-11-22T12:49:06.387Z,2.64
2022-11-22T12:51:58.495Z,2.82
2022-11-22T12:54:35.864Z,2.56
2022-11-22T12:57:14.172Z,2.69
2022-11-22T12:59:54.780Z,2.67
2022-11-22T13:02:33.591Z,2.79
2022-11-22T13:05:11.899Z,2.77
2022-11-22T13:08:19.119Z,2.82
2022-11-22T13:10:56.594Z,2.75
2022-11-22T13:13:30.119Z,2.86
2022-11-22T13:16:01.395Z,2.85
2022-11-22T13:18:32.895Z,2.74
2022-11-22T13:21:06.354Z,2.73
2022-11-22T13:24:18.498Z,2.75
2022-11-22T13:27:01.451Z,2.78
2022-11-22T13:29:31.616Z,2.64
2022-11-22T13:32:17.228Z,2.73
2022-11-22T13:35:07.547Z,2.68
2022-11-22T13:37:39.233Z,2.63
2022-11-22T13:40:26.865Z,2.52
2022-11-22T13:43:21.610Z,2.64
2022-11-22T13:45:57.580Z,2.44
2022-11-22T13:48:39.803Z,2.57
2022-11-22T13:51:07.586Z,2.59
2022-11-22T13:53:39.758Z,2.61
2022-11-22T13:56:15.428Z,2.59
2022-11-22T13:58:50.970Z,2.50
2022-11-22T14:01:36.601Z,2.58
2022-11-22T14:04:15.913Z,2.46
2022-11-22T14:07:10.542Z,2.74
2022-11-22T14:09:52.860Z,2.76
2022-11-22T14:12:56.718Z,2.70
2022-11-22T14:15:41.945Z,2.80
2022-11-22T14:18:41.122Z,2.66
2022-11-22T14:21:39.688Z,2.59
2022-11-22T14:24:34.265Z,2.77
2022-11-22T14:27:22.475Z,2.77
2022-11-22T14:29:54.050Z,2.90
2022-11-22T14:32:24.378Z,2.92
2022-11-22T14:35:17.724Z,2.93
2022-11-22T14:38:06.937Z,2.90
2022-11-22T14:40:41.489Z,2.86
2022-11-22T14:43:11.268Z,2.91
2022-11-22T14:45:38.232Z,2.89
2022-11-22T14:48:20.365Z,2.78
2022-11-22T14:51:14.918Z,2.84
2022-11-22T14:53:52.574Z,2.67
2022-11-22T14:56:33.138Z,2.79
2022-11-22T14:59:31.179Z,2.75
2022-11-22T15:02:39.336Z,2.81
2022-11-22T15:09:11.961Z,2.93
2022-11-22T15:09:20.684Z,2.87
2022-11-22T15:11:27.392Z,2.77
2022-11-22T15:14:00.328Z,2.90
2022-11-22T15:57:30.381Z,3.19
2022-11-22T15:59:58.480Z,2.97
2022-11-22T16:02:27.494Z,2.88
2022-11-22T16:06:06.403Z,3.06
2022-11-22T16:07:55.490Z,2.96
2022-11-22T16:10:30.328Z,2.97
2022-11-22T16:12:57.465Z,3.11
2022-11-22T16:15:35.086Z,3.14
2022-11-22T16:18:08.184Z,3.33
2022-11-22T16:20:37.253Z,3.29
2022-11-22T16:23:10.247Z,3.48
2022-11-22T16:25:39.622Z,3.35
2022-11-22T16:28:26.839Z,3.42
2022-11-22T16:30:55.951Z,3.28
2022-11-22T16:33:23.564Z,3.29
2022-11-22T16:35:55.969Z,3.28
2022-11-22T16:38:24.157Z,3.33
2022-11-22T16:40:52.617Z,3.30
2022-11-22T16:43:24.208Z,3.47
2022-11-22T16:45:52.142Z,3.47
2022-11-22T16:48:37.649Z,3.45
2022-11-22T16:51:15.993Z,3.36
2022-11-22T16:53:45.549Z,3.32
2022-11-22T16:56:19.045Z,3.24
2022-11-22T16:58:50.148Z,3.35
2022-11-22T17:01:22.712Z,3.29
2022-11-22T17:03:52.250Z,3.39
2022-11-22T17:06:21.521Z,3.30
2022-11-22T17:08:50.269Z,3.24
2022-11-22T17:11:21.736Z,3.19
2022-11-22T17:13:48.979Z,3.30
2022-11-22T17:16:16.191Z,3.37
2022-11-22T17:18:43.734Z,3.49
2022-11-22T17:21:20.944Z,3.45
2022-11-22T17:23:49.119Z,3.36
2022-11-22T17:26:16.533Z,3.28
2022-11-22T17:28:47.169Z,3.24
2022-11-22T17:31:17.780Z,3.28
2022-11-22T17:33:44.699Z,3.39
2022-11-22T17:36:32.071Z,3.27
2022-11-22T17:39:01.052Z,3.20
2022-11-22T17:41:28.084Z,3.28
2022-11-22T17:43:57.178Z,3.43
2022-11-22T17:46:24.606Z,3.39
2022-11-22T17:48:57.036Z,3.29
2022-11-22T17:51:24.685Z,3.43
2022-11-22T17:53:52.217Z,3.30
2022-11-22T17:56:19.829Z,3.41
2022-11-22T17:58:47.171Z,3.33
2022-11-22T18:01:17.266Z,3.27
2022-11-22T18:03:45.399Z,3.47
2022-11-22T18:06:13.852Z,3.50
2022-11-22T18:08:46.461Z,3.50
2022-11-22T18:11:14.897Z,3.36
2022-11-22T18:13:42.475Z,3.39
2022-11-22T18:16:11.973Z,3.43
2022-11-22T18:21:27.675Z,3.33
2022-11-22T18:23:54.577Z,3.45
2022-11-22T18:26:38.741Z,3.54
2022-11-22T18:31:54.190Z,3.49
2022-11-22T18:34:22.789Z,3.61
2022-11-22T18:36:55.715Z,3.41
2022-11-22T18:39:26.704Z,3.73
2022-11-22T18:41:53.757Z,3.53
2022-11-22T18:44:20.679Z,3.50
2022-11-22T18:46:47.807Z,3.64
2022-11-22T18:49:15.016Z,3.45
2022-11-22T18:51:42.095Z,3.51
2022-11-22T18:54:09.566Z,3.55
2022-11-22T18:56:36.399Z,3.70
2022-11-22T18:59:03.996Z,3.55
2022-11-22T19:01:32.889Z,3.67
2022-11-22T19:04:01.349Z,3.67
2022-11-22T19:06:28.459Z,3.68
2022-11-22T19:08:55.453Z,3.80
2022-11-22T19:11:22.331Z,3.68
2022-11-22T19:13:49.312Z,3.77
2022-11-22T19:16:19.460Z,3.77
2022-11-22T19:18:46.479Z,3.66
2022-11-22T19:21:20.677Z,3.77
2022-11-22T19:23:48.480Z,3.72
2022-11-22T19:26:18.952Z,3.66
2022-11-22T19:28:46.894Z,3.60
2022-11-22T19:31:24.783Z,3.83
2022-11-22T19:33:52.212Z,3.84
2022-11-22T19:36:30.732Z,3.87
2022-11-22T19:38:59.847Z,3.69
2022-11-22T19:41:26.818Z,3.68
2022-11-22T19:43:55.477Z,3.74
2022-11-22T19:46:22.854Z,3.91
2022-11-22T19:49:09.014Z,3.97
2022-11-22T19:51:35.971Z,4.06
2022-11-22T19:54:03.746Z,3.96
2022-11-22T19:56:35.813Z,3.88
2022-11-22T19:59:05.777Z,3.96
2022-11-22T20:01:33.972Z,3.89
2022-11-22T20:04:03.931Z,3.85
2022-11-22T20:06:32.551Z,3.82
2022-11-22T20:09:05.319Z,3.99
2022-11-22T20:11:32.318Z,4.12
2022-11-22T20:13:59.123Z,3.90
2022-11-22T20:16:28.537Z,4.10
2022-11-22T20:19:00.593Z,3.98
2022-11-22T20:21:29.800Z,4.08
2022-11-22T20:23:56.904Z,4.13
2022-11-22T20:26:25.022Z,3.95
2022-11-22T20:29:00.917Z,4.09
2022-11-22T20:31:30.496Z,4.14
2022-11-22T20:33:59.013Z,4.16
2022-11-22T20:36:28.704Z,4.18
2022-11-22T20:38:56.286Z,4.27
2022-11-22T20:41:26.853Z,4.31
2022-11-22T20:43:54.113Z,4.10
2022-11-22T20:46:24.377Z,4.17
2022-11-22T20:48:52.124Z,4.16
2022-11-22T20:51:24.076Z,4.21
2022-11-22T20:53:51.535Z,4.23
2022-11-22T20:56:19.229Z,4.20
2022-11-22T20:58:46.972Z,4.27
2022-11-22T21:01:20.200Z,4.20
2022-11-22T21:03:47.881Z,3.99
2022-11-22T21:06:16.309Z,4.21
2022-11-22T21:08:43.225Z,4.08
2022-11-22T21:11:15.322Z,4.04
2022-11-22T21:13:43.603Z,3.84
2022-11-22T21:16:22.652Z,4.03
2022-11-22T21:18:51.298Z,3.94
2022-11-22T21:21:18.196Z,4.05
2022-11-22T21:23:45.203Z,4.02
2022-11-22T21:26:12.095Z,3.89
2022-11-22T21:28:39.039Z,4.14
2022-11-22T21:31:06.661Z,3.97
2022-11-22T21:33:35.736Z,4.18
2022-11-22T21:36:05.518Z,4.13
2022-11-22T21:38:36.125Z,4.13
2022-11-22T21:41:31.783Z,4.06
2022-11-22T21:43:54.560Z,4.11
2022-11-22T21:46:21.413Z,4.14
2022-11-22T21:48:48.685Z,4.03
2022-11-22T21:51:15.546Z,4.05
2022-11-22T21:53:42.559Z,4.16
2022-11-22T21:56:09.692Z,4.03
2022-11-22T21:58:36.528Z,4.20
2022-11-22T22:01:03.389Z,4.32
2022-11-22T22:03:30.946Z,4.22
2022-11-22T22:05:58.110Z,4.27
2022-11-22T22:08:25.881Z,4.31
2022-11-22T22:10:52.739Z,4.38
2022-11-22T22:13:19.674Z,4.24
2022-11-22T22:15:47.568Z,4.48
2022-11-22T22:18:14.841Z,4.35
2022-11-22T22:20:41.768Z,4.37
2022-11-22T22:23:08.613Z,4.32
2022-11-22T22:25:39.233Z,4.21
2022-11-22T22:28:06.084Z,4.31
2022-11-22T22:30:32.880Z,4.48
2022-11-22T22:32:59.713Z,4.35
2022-11-22T22:35:26.509Z,4.52
2022-11-22T22:37:53.301Z,4.49
2022-11-22T22:40:20.100Z,4.43
2022-11-22T22:42:46.940Z,4.43
2022-11-22T22:45:13.757Z,4.27
2022-11-22T22:47:40.538Z,4.41
2022-11-22T22:50:07.664Z,4.35
2022-11-22T22:52:34.496Z,4.53
2022-11-22T22:55:01.371Z,4.45
2022-11-22T22:57:28.372Z,4.52
2022-11-22T22:59:55.193Z,4.46
2022-11-22T23:02:22.009Z,4.35
2022-11-22T23:04:48.869Z,4.54
2022-11-22T23:07:15.714Z,4.41
2022-11-22T23:09:42.558Z,4.54
2022-11-22T23:12:09.468Z,4.55
2022-11-22T23:14:36.292Z,4.47
2022-11-22T23:17:03.168Z,4.57
2022-11-22T23:19:30.392Z,4.53
2022-11-22T23:21:57.493Z,4.41
2022-11-22T23:24:24.278Z,4.46
2022-11-22T23:26:51.130Z,4.49
2022-11-22T23:29:18.109Z,4.45
2022-11-22T23:31:44.913Z,4.55
2022-11-22T23:34:12.247Z,4.59
2022-11-22T23:36:40.864Z,4.58
2022-11-22T23:39:08.218Z,4.46
2022-11-22T23:41:35.089Z,4.62
2022-11-22T23:44:01.978Z,4.40
2022-11-22T23:46:28.867Z,4.49
2022-11-22T23:48:57.851Z,4.45
2022-11-22T23:51:26.055Z,4.39
2022-11-22T23:53:57.688Z,4.67
2022-11-22T23:56:25.452Z,4.47
2022-11-22T23:58:52.854Z,4.43
